createdAt,value
2019-02-05T00:00:45.165Z,24.80
2019-02-05T00:03:15.719Z,21.83
2019-02-05T00:05:44.965Z,27.00
2019-02-05T00:08:13.661Z,22.20
2019-02-05T00:10:42.128Z,20.77
2019-02-05T00:13:13.169Z,24.43
2019-02-05T00:15:42.013Z,27.57
2019-02-05T00:18:10.885Z,24.33
2019-02-05T00:20:39.404Z,28.40
2019-02-05T00:23:07.921Z,27.27
2019-02-05T00:25:37.443Z,21.10
2019-02-05T00:28:06.273Z,27.50
2019-02-05T00:30:35.161Z,25.50
2019-02-05T00:33:03.763Z,25.23
2019-02-05T00:35:32.621Z,25.80
2019-02-05T00:38:01.517Z,26.90
2019-02-05T00:40:30.044Z,25.93
2019-02-05T00:42:58.569Z,25.20
2019-02-05T00:45:27.129Z,24.93
2019-02-05T00:47:55.941Z,16.80
2019-02-05T00:50:25.749Z,26.90
2019-02-05T00:52:57.395Z,23.87
2019-02-05T00:55:26.414Z,31.07
2019-02-05T00:57:55.301Z,30.13
2019-02-05T01:00:26.936Z,28.57
2019-02-05T01:02:58.340Z,22.53
2019-02-05T01:05:27.861Z,26.67
2019-02-05T01:07:56.469Z,20.53
2019-02-05T01:10:46.073Z,28.10
2019-02-05T01:13:14.917Z,26.27
2019-02-05T01:15:44.233Z,25.53
2019-02-05T01:18:13.027Z,33.77
2019-02-05T01:20:41.937Z,29.50
2019-02-05T01:23:10.894Z,27.30
2019-02-05T01:25:40.093Z,28.83
2019-02-05T01:28:08.643Z,27.37
2019-02-05T01:30:37.169Z,28.43
2019-02-05T01:33:05.675Z,22.30
2019-02-05T01:35:34.528Z,29.47
2019-02-05T01:38:03.130Z,26.83
2019-02-05T01:40:31.650Z,27.67
2019-02-05T01:43:00.490Z,30.37
2019-02-05T01:45:29.217Z,22.20
2019-02-05T01:47:57.737Z,25.57
2019-02-05T01:50:27.848Z,27.27
2019-02-05T01:52:56.441Z,25.53
2019-02-05T01:55:24.911Z,29.83
2019-02-05T01:57:53.568Z,27.80
2019-02-05T02:00:24.530Z,24.73
2019-02-05T02:02:54.471Z,24.90
2019-02-05T02:05:23.116Z,26.40
2019-02-05T02:07:52.269Z,24.83
2019-02-05T02:10:23.094Z,26.77
2019-02-05T02:12:53.042Z,28.53
2019-02-05T02:15:22.493Z,27.53
2019-02-05T02:17:51.279Z,28.93
2019-02-05T02:20:22.223Z,26.93
2019-02-05T02:22:51.489Z,26.50
2019-02-05T02:25:22.328Z,28.43
2019-02-05T02:27:52.871Z,26.03
2019-02-05T02:30:30.285Z,28.97
2019-02-05T02:33:01.133Z,31.50
2019-02-05T02:35:29.975Z,26.30
2019-02-05T02:37:58.892Z,30.87
2019-02-05T02:40:27.772Z,28.23
2019-02-05T02:42:56.439Z,29.13
2019-02-05T02:45:26.857Z,32.97
2019-02-05T02:47:56.422Z,35.90
2019-02-05T02:50:25.157Z,35.63
2019-02-05T02:52:54.350Z,33.07
2019-02-05T02:55:23.221Z,33.57
2019-02-05T02:57:51.817Z,34.53
2019-02-05T03:00:22.215Z,29.07
2019-02-05T03:02:52.675Z,37.37
2019-02-05T03:05:24.553Z,35.40
2019-02-05T03:07:53.681Z,32.90
2019-02-05T03:10:27.648Z,35.87
2019-02-05T03:12:56.743Z,33.20
2019-02-05T03:15:26.762Z,41.23
2019-02-05T03:17:57.391Z,37.20
2019-02-05T03:20:25.993Z,37.10
2019-02-05T03:22:57.135Z,42.03
2019-02-05T03:25:25.917Z,35.83
2019-02-05T03:27:54.580Z,35.90
2019-02-05T03:30:24.998Z,34.90
2019-02-05T03:32:55.971Z,31.23
2019-02-05T03:35:25.151Z,38.00
2019-02-05T03:37:54.134Z,32.97
2019-02-05T03:40:32.013Z,35.17
2019-02-05T03:43:00.743Z,35.97
2019-02-05T03:45:31.860Z,26.90
2019-02-05T03:48:02.922Z,34.70
2019-02-05T03:50:37.523Z,36.57
2019-02-05T03:53:26.998Z,32.93
2019-02-05T03:56:04.226Z,39.20
2019-02-05T03:58:56.801Z,29.60
2019-02-05T04:01:46.558Z,36.33
2019-02-05T04:04:38.238Z,35.53
2019-02-05T04:07:26.450Z,37.10
2019-02-05T04:10:23.726Z,37.77
2019-02-05T04:13:04.906Z,33.13
2019-02-05T04:16:09.004Z,37.27
2019-02-05T04:18:43.860Z,34.27
2019-02-05T04:21:32.233Z,39.20
2019-02-05T04:24:05.128Z,43.90
2019-02-05T04:26:55.202Z,44.33
2019-02-05T04:29:35.819Z,35.00
2019-02-05T04:32:15.371Z,38.63
2019-02-05T04:35:20.588Z,37.07
2019-02-05T04:38:05.169Z,36.83
2019-02-05T04:40:48.789Z,35.03
2019-02-05T04:43:29.777Z,38.80
2019-02-05T04:46:11.365Z,32.63
2019-02-05T04:48:58.573Z,46.60
2019-02-05T04:51:41.993Z,41.90
2019-02-05T04:54:16.308Z,33.97
2019-02-05T04:56:59.573Z,45.97
2019-02-05T04:59:40.501Z,35.70
2019-02-05T05:02:12.423Z,40.90
2019-02-05T05:04:49.940Z,35.77
2019-02-05T05:07:27.308Z,39.77
2019-02-05T05:09:58.889Z,44.27
2019-02-05T05:12:27.656Z,37.97
2019-02-05T05:14:56.279Z,35.57
2019-02-05T05:17:24.896Z,42.53
2019-02-05T05:19:53.424Z,51.13
2019-02-05T05:22:22.337Z,47.70
2019-02-05T05:24:51.340Z,42.63
2019-02-05T05:27:20.329Z,43.23
2019-02-05T05:29:50.839Z,44.37
2019-02-05T05:32:19.732Z,51.57
2019-02-05T05:34:48.244Z,48.63
2019-02-05T05:37:15.962Z,37.07
2019-02-05T05:39:44.778Z,46.17
2019-02-05T05:42:13.360Z,48.00
2019-02-05T05:44:46.256Z,41.17
2019-02-05T05:47:14.778Z,36.73
2019-02-05T05:49:43.422Z,43.57
2019-02-05T05:52:12.279Z,49.73
2019-02-05T05:54:41.088Z,45.47
2019-02-05T05:57:09.937Z,53.40
2019-02-05T05:59:38.461Z,41.00
2019-02-05T06:02:07.183Z,48.93
2019-02-05T06:04:35.662Z,59.57
2019-02-05T06:07:04.381Z,54.63
2019-02-05T06:09:33.065Z,52.43
2019-02-05T06:12:01.954Z,45.20
2019-02-05T06:14:30.481Z,51.53
2019-02-05T06:17:00.065Z,57.73
2019-02-05T06:19:29.711Z,47.73
2019-02-05T06:22:01.413Z,46.50
2019-02-05T06:24:30.493Z,48.53
2019-02-05T06:26:59.266Z,52.23
2019-02-05T06:29:28.078Z,51.80
2019-02-05T06:31:56.985Z,47.17
2019-02-05T06:34:27.517Z,47.90
2019-02-05T06:36:56.065Z,57.77
2019-02-05T06:39:26.389Z,50.00
2019-02-05T06:41:57.608Z,41.30
2019-02-05T06:44:26.413Z,51.40
2019-02-05T06:46:57.537Z,48.50
2019-02-05T06:49:26.266Z,52.60
2019-02-05T06:51:54.817Z,51.40
2019-02-05T06:54:25.187Z,50.50
2019-02-05T06:56:54.417Z,104.97
2019-02-05T06:59:22.960Z,54.63
2019-02-05T07:01:51.821Z,58.33
2019-02-05T07:04:21.989Z,89.03
2019-02-05T07:06:50.884Z,114.20
2019-02-05T07:09:19.446Z,60.37
2019-02-05T07:11:48.011Z,63.77
2019-02-05T07:14:16.895Z,125.73
2019-02-05T07:16:45.479Z,148.23
2019-02-05T07:19:14.030Z,57.30
2019-02-05T07:21:47.472Z,94.23
2019-02-05T07:24:22.310Z,53.80
2019-02-05T07:26:51.178Z,63.03
2019-02-05T07:29:20.066Z,60.80
2019-02-05T07:31:48.955Z,115.23
2019-02-05T07:34:17.509Z,102.70
2019-02-05T07:36:46.567Z,80.33
2019-02-05T07:39:15.419Z,57.13
2019-02-05T07:41:44.307Z,69.50
2019-02-05T07:44:13.226Z,57.27
2019-02-05T07:46:42.113Z,57.93
2019-02-05T07:49:10.975Z,63.73
2019-02-05T07:51:39.539Z,67.70
2019-02-05T07:54:08.105Z,63.70
2019-02-05T07:56:37.237Z,73.73
2019-02-05T07:59:10.289Z,67.50
2019-02-05T08:01:38.914Z,59.83
2019-02-05T08:04:07.533Z,61.57
2019-02-05T08:06:36.395Z,56.40
2019-02-05T08:09:07.761Z,69.70
2019-02-05T08:11:36.477Z,82.60
2019-02-05T08:14:06.234Z,67.43
2019-02-05T08:16:35.215Z,69.90
2019-02-05T08:19:04.219Z,70.53
2019-02-05T08:21:32.766Z,67.20
2019-02-05T08:24:01.367Z,82.80
2019-02-05T08:26:31.520Z,75.33
2019-02-05T08:29:00.073Z,66.73
2019-02-05T08:31:28.963Z,69.80
2019-02-05T08:33:57.525Z,70.93
2019-02-05T08:36:26.444Z,78.13
2019-02-05T08:38:55.018Z,70.07
2019-02-05T08:41:24.989Z,80.60
2019-02-05T08:43:53.526Z,75.43
2019-02-05T08:46:22.393Z,75.40
2019-02-05T08:48:51.253Z,75.90
2019-02-05T08:51:20.069Z,78.77
2019-02-05T08:53:48.868Z,69.93
2019-02-05T08:56:17.838Z,73.37
2019-02-05T08:58:46.427Z,88.43
2019-02-05T09:01:14.965Z,76.73
2019-02-05T09:03:43.999Z,74.13
2019-02-05T09:06:13.481Z,79.60
2019-02-05T09:08:42.247Z,71.03
2019-02-05T09:11:11.198Z,80.27
2019-02-05T09:13:40.179Z,87.63
2019-02-05T09:16:09.058Z,82.90
2019-02-05T09:18:37.617Z,81.60
2019-02-05T09:21:07.497Z,73.97
2019-02-05T09:23:36.442Z,75.80
2019-02-05T09:26:05.367Z,70.13
2019-02-05T09:28:33.931Z,77.47
2019-02-05T09:31:02.843Z,80.40
2019-02-05T09:33:31.821Z,82.70
2019-02-05T09:36:02.435Z,67.70
2019-02-05T09:38:30.986Z,69.83
2019-02-05T09:40:59.869Z,78.17
2019-02-05T09:43:28.718Z,73.33
2019-02-05T09:45:58.954Z,82.10
2019-02-05T09:48:27.538Z,75.93
2019-02-05T09:50:57.305Z,71.17
2019-02-05T09:53:25.856Z,80.83
2019-02-05T09:55:55.715Z,71.90
2019-02-05T09:58:24.617Z,82.83
2019-02-05T10:00:54.718Z,77.37
2019-02-05T10:03:23.290Z,72.60
2019-02-05T10:05:51.835Z,73.70
2019-02-05T10:08:20.781Z,75.30
2019-02-05T10:10:49.751Z,68.67
2019-02-05T10:13:18.580Z,72.43
2019-02-05T10:15:47.450Z,70.57
2019-02-05T10:18:16.005Z,69.60
2019-02-05T10:20:45.093Z,75.03
2019-02-05T10:23:15.471Z,61.13
2019-02-05T10:25:45.546Z,70.63
2019-02-05T10:28:14.464Z,65.20
2019-02-05T10:30:44.814Z,64.20
2019-02-05T10:33:13.458Z,57.00
2019-02-05T10:35:43.153Z,59.43
2019-02-05T10:38:12.183Z,62.63
2019-02-05T10:40:43.827Z,70.40
2019-02-05T10:43:13.102Z,76.03
2019-02-05T10:45:42.184Z,61.93
2019-02-05T10:48:11.074Z,207.90
2019-02-05T10:50:40.080Z,65.60
2019-02-05T10:53:08.786Z,60.10
2019-02-05T10:55:38.695Z,53.17
2019-02-05T10:58:08.787Z,58.00
2019-02-05T11:00:37.798Z,63.77
2019-02-05T11:03:08.324Z,53.50
2019-02-05T11:05:37.402Z,50.83
2019-02-05T11:08:06.426Z,67.43
2019-02-05T11:10:35.553Z,58.83
2019-02-05T11:13:06.331Z,59.27
2019-02-05T11:15:35.238Z,54.33
2019-02-05T11:18:06.906Z,55.73
2019-02-05T11:20:35.782Z,54.27
2019-02-05T11:23:05.352Z,50.80
2019-02-05T11:25:35.464Z,50.75
2019-02-05T11:28:05.961Z,56.00
2019-02-05T11:30:40.006Z,56.93
2019-02-05T11:33:08.924Z,48.52
2019-02-05T11:35:37.915Z,48.00
2019-02-05T11:38:07.904Z,46.57
2019-02-05T11:40:38.798Z,47.62
2019-02-05T11:43:07.378Z,47.45
2019-02-05T11:45:36.341Z,50.67
2019-02-05T11:48:07.979Z,51.13
2019-02-05T11:50:36.857Z,48.57
2019-02-05T11:53:05.870Z,54.53
2019-02-05T11:55:37.702Z,43.90
2019-02-05T11:58:07.874Z,46.67
2019-02-05T12:00:47.805Z,54.30
2019-02-05T12:03:17.152Z,42.87
2019-02-05T12:05:46.089Z,47.40
2019-02-05T12:08:14.882Z,50.92
2019-02-05T12:10:43.902Z,39.20
2019-02-05T12:13:12.735Z,43.80
2019-02-05T12:15:42.663Z,41.03
2019-02-05T12:18:11.237Z,48.47
2019-02-05T12:20:42.163Z,48.73
2019-02-05T12:23:11.184Z,47.67
2019-02-05T12:25:40.063Z,54.23
2019-02-05T12:28:09.040Z,46.02
2019-02-05T12:30:45.266Z,45.43
2019-02-05T12:33:13.185Z,44.65
2019-02-05T12:35:41.803Z,41.85
2019-02-05T12:38:10.872Z,48.55
2019-02-05T12:40:39.864Z,43.53
2019-02-05T12:43:08.631Z,44.70
2019-02-05T12:45:38.873Z,42.90
2019-02-05T12:48:11.274Z,45.30
2019-02-05T12:50:43.041Z,36.68
2019-02-05T12:53:11.951Z,42.95
2019-02-05T12:55:40.574Z,39.63
2019-02-05T12:58:12.291Z,42.55
2019-02-05T13:00:56.661Z,49.65
2019-02-05T13:03:17.805Z,37.50
2019-02-05T13:05:47.451Z,38.17
2019-02-05T13:08:16.382Z,40.10
2019-02-05T13:10:47.399Z,41.33
2019-02-05T13:13:18.125Z,40.17
2019-02-05T13:15:46.771Z,38.90
2019-02-05T13:18:15.672Z,41.02
2019-02-05T13:20:44.710Z,43.28
2019-02-05T13:23:13.331Z,36.75
2019-02-05T13:25:42.493Z,39.23
2019-02-05T13:28:11.381Z,39.48
2019-02-05T13:30:40.204Z,46.10
2019-02-05T13:33:10.607Z,41.45
2019-02-05T13:35:39.494Z,40.50
2019-02-05T13:38:08.573Z,44.85
2019-02-05T13:40:37.322Z,41.23
2019-02-05T13:43:06.870Z,36.65
2019-02-05T13:45:37.839Z,42.62
2019-02-05T13:48:09.316Z,39.25
2019-02-05T13:50:38.534Z,41.95
2019-02-05T13:53:07.543Z,42.95
2019-02-05T13:55:39.010Z,35.50
2019-02-05T13:58:09.109Z,38.60
2019-02-05T14:00:45.921Z,41.05
2019-02-05T14:03:14.521Z,38.40
2019-02-05T14:05:43.883Z,38.80
2019-02-05T14:08:12.588Z,38.10
2019-02-05T14:10:43.652Z,38.50
2019-02-05T14:13:12.341Z,34.55
2019-02-05T14:15:45.351Z,37.15
2019-02-05T14:18:13.967Z,45.33
2019-02-05T14:20:42.947Z,35.38
2019-02-05T14:23:11.841Z,38.15
2019-02-05T14:25:41.045Z,35.68
2019-02-05T14:28:09.606Z,36.70
2019-02-05T14:30:47.077Z,37.38
2019-02-05T14:33:16.095Z,37.45
2019-02-05T14:35:44.709Z,39.10
2019-02-05T14:38:13.715Z,39.98
2019-02-05T14:40:42.404Z,35.78
2019-02-05T14:43:11.030Z,37.70
2019-02-05T14:45:40.457Z,35.70
2019-02-05T14:48:10.612Z,32.23
2019-02-05T14:50:48.366Z,34.45
2019-02-05T14:53:16.917Z,34.75
2019-02-05T14:55:45.534Z,32.53
2019-02-05T14:58:14.380Z,25.35
2019-02-05T15:00:43.107Z,28.32
2019-02-05T15:03:13.346Z,26.52
2019-02-05T15:05:42.881Z,27.53
2019-02-05T15:08:12.878Z,26.00
2019-02-05T15:10:41.506Z,30.10
2019-02-05T15:13:10.681Z,26.82
2019-02-05T15:15:39.431Z,29.90
2019-02-05T15:18:09.409Z,28.73
2019-02-05T15:20:40.978Z,29.57
2019-02-05T15:23:10.069Z,28.17
2019-02-05T15:25:39.007Z,27.20
2019-02-05T15:28:08.359Z,29.82
2019-02-05T15:30:40.761Z,30.40
2019-02-05T15:33:16.545Z,26.77
2019-02-05T15:35:52.693Z,25.37
2019-02-05T15:38:21.341Z,27.40
2019-02-05T15:40:50.268Z,28.73
2019-02-05T15:43:19.381Z,26.52
2019-02-05T15:45:47.944Z,30.03
2019-02-05T15:48:16.509Z,34.90
2019-02-05T15:50:45.131Z,27.25
2019-02-05T15:53:14.112Z,26.97
2019-02-05T15:55:43.263Z,28.90
2019-02-05T15:58:13.444Z,29.20
2019-02-05T16:00:42.348Z,30.50
2019-02-05T16:03:11.414Z,31.60
2019-02-05T16:05:40.086Z,28.77
2019-02-05T16:08:08.982Z,29.13
2019-02-05T16:10:38.944Z,29.83
2019-02-05T16:13:07.590Z,27.80
2019-02-05T16:15:36.154Z,31.23
2019-02-05T16:18:06.329Z,29.20
2019-02-05T16:20:35.264Z,30.97
2019-02-05T16:23:04.270Z,28.92
2019-02-05T16:25:32.886Z,31.17
2019-02-05T16:28:01.618Z,30.85
2019-02-05T16:30:32.579Z,33.85
2019-02-05T16:33:02.932Z,30.55
2019-02-05T16:35:32.831Z,37.00
2019-02-05T16:38:05.418Z,36.30
2019-02-05T16:40:36.966Z,40.00
2019-02-05T16:43:06.288Z,36.23
2019-02-05T16:45:35.362Z,35.15
2019-02-05T16:48:04.476Z,45.63
2019-02-05T16:50:38.630Z,39.97
2019-02-05T16:53:08.552Z,48.90
2019-02-05T16:55:37.538Z,37.03
2019-02-05T16:58:07.468Z,40.10
2019-02-05T17:00:37.812Z,40.13
2019-02-05T17:03:07.089Z,47.07
2019-02-05T17:05:38.629Z,38.10
2019-02-05T17:08:07.800Z,37.63
2019-02-05T17:10:36.615Z,31.80
2019-02-05T17:13:07.958Z,37.95
2019-02-05T17:15:37.190Z,37.30
2019-02-05T17:18:07.070Z,34.63
2019-02-05T17:20:36.584Z,46.60
2019-02-05T17:23:05.974Z,37.27
2019-02-05T17:25:36.094Z,33.73
2019-02-05T17:28:07.167Z,44.30
2019-02-05T17:30:38.070Z,40.80
2019-02-05T17:33:08.306Z,36.53
2019-02-05T17:35:37.174Z,38.27
2019-02-05T17:38:07.870Z,35.40
2019-02-05T17:40:36.682Z,35.33
2019-02-05T17:43:06.086Z,34.90
2019-02-05T17:45:36.986Z,35.10
2019-02-05T17:48:09.095Z,33.33
2019-02-05T17:50:37.918Z,32.50
2019-02-05T17:53:06.507Z,45.07
2019-02-05T17:55:36.566Z,43.60
2019-02-05T17:58:05.658Z,46.27
2019-02-05T18:00:43.188Z,40.00
2019-02-05T18:03:11.725Z,39.33
2019-02-05T18:05:42.238Z,42.93
2019-02-05T18:08:11.174Z,42.53
2019-02-05T18:10:42.000Z,41.50
2019-02-05T18:13:12.489Z,47.37
2019-02-05T18:15:44.358Z,48.67
2019-02-05T18:18:13.206Z,42.77
2019-02-05T18:20:44.050Z,41.50
2019-02-05T18:23:12.703Z,48.03
2019-02-05T18:25:43.238Z,40.77
2019-02-05T18:28:12.232Z,44.57
2019-02-05T18:30:41.232Z,45.00
2019-02-05T18:33:10.052Z,47.93
2019-02-05T18:35:38.874Z,52.40
2019-02-05T18:38:13.483Z,53.10
2019-02-05T18:40:43.153Z,58.80
2019-02-05T18:43:12.074Z,60.97
2019-02-05T18:45:41.022Z,55.83
2019-02-05T18:48:11.185Z,51.77
2019-02-05T18:50:40.111Z,52.57
2019-02-05T18:53:11.556Z,49.77
2019-02-05T18:55:42.192Z,54.17
2019-02-05T18:58:10.846Z,46.80
2019-02-05T19:00:44.382Z,47.07
2019-02-05T19:03:16.018Z,46.27
2019-02-05T19:05:43.537Z,52.27
2019-02-05T19:08:16.356Z,50.13
2019-02-05T19:10:44.046Z,50.33
2019-02-05T19:13:12.788Z,52.40
2019-02-05T19:15:42.409Z,52.77
2019-02-05T19:18:11.842Z,45.00
2019-02-05T19:20:40.445Z,48.73
2019-02-05T19:23:10.483Z,53.17
2019-02-05T19:25:40.773Z,51.17
2019-02-05T19:28:10.490Z,49.13
2019-02-05T19:30:43.680Z,47.63
2019-02-05T19:33:26.398Z,47.77
2019-02-05T19:35:47.609Z,50.37
2019-02-05T19:38:16.242Z,48.13
2019-02-05T19:40:44.813Z,50.50
2019-02-05T19:43:13.515Z,57.07
2019-02-05T19:45:50.514Z,51.27
2019-02-05T19:48:26.949Z,48.93
2019-02-05T19:50:56.968Z,46.47
2019-02-05T19:53:26.082Z,50.27
2019-02-05T19:55:54.934Z,65.60
2019-02-05T19:58:23.517Z,59.73
2019-02-05T20:00:52.563Z,54.43
2019-02-05T20:03:21.157Z,48.60
2019-02-05T20:05:49.701Z,50.23
2019-02-05T20:08:18.843Z,56.43
2019-02-05T20:10:48.824Z,55.60
2019-02-05T20:13:17.469Z,54.67
2019-02-05T20:15:46.446Z,50.27
2019-02-05T20:18:15.708Z,57.73
2019-02-05T20:20:44.605Z,54.23
2019-02-05T20:23:13.499Z,55.90
2019-02-05T20:25:42.193Z,54.93
2019-02-05T20:28:10.841Z,60.53
2019-02-05T20:30:39.656Z,61.63
2019-02-05T20:33:08.314Z,58.67
2019-02-05T20:35:37.144Z,55.53
2019-02-05T20:38:06.067Z,48.83
2019-02-05T20:40:36.186Z,54.47
2019-02-05T20:43:04.897Z,57.53
2019-02-05T20:45:34.834Z,72.37
2019-02-05T20:48:04.100Z,68.23
2019-02-05T20:50:33.060Z,57.47
2019-02-05T20:53:13.011Z,58.20
2019-02-05T20:55:31.856Z,51.63
2019-02-05T20:58:00.422Z,45.50
2019-02-05T21:00:31.359Z,46.83
2019-02-05T21:03:00.179Z,49.80
2019-02-05T21:05:29.102Z,45.73
2019-02-05T21:07:58.238Z,51.13
2019-02-05T21:10:32.212Z,53.93
2019-02-05T21:13:00.879Z,53.07
2019-02-05T21:15:29.854Z,47.90
2019-02-05T21:17:58.667Z,50.73
2019-02-05T21:20:34.247Z,49.83
2019-02-05T21:23:03.182Z,57.13
2019-02-05T21:25:31.793Z,54.10
2019-02-05T21:28:00.602Z,59.77
2019-02-05T21:30:29.770Z,52.37
2019-02-05T21:32:58.405Z,47.47
2019-02-05T21:35:26.968Z,47.17
2019-02-05T21:37:55.798Z,48.20
2019-02-05T21:40:26.106Z,48.53
2019-02-05T21:42:54.962Z,45.13
2019-02-05T21:45:27.922Z,43.90
2019-02-05T21:47:57.903Z,45.17
2019-02-05T21:50:27.622Z,47.07
2019-02-05T21:52:56.671Z,48.17
2019-02-05T21:55:26.691Z,43.57
2019-02-05T21:57:58.142Z,52.17
2019-02-05T22:00:30.486Z,43.73
2019-02-05T22:03:01.013Z,45.37
2019-02-05T22:05:33.099Z,43.23
2019-02-05T22:08:02.494Z,44.93
2019-02-05T22:10:31.579Z,54.93
2019-02-05T22:13:00.208Z,44.83
2019-02-05T22:15:32.513Z,53.77
2019-02-05T22:18:02.921Z,46.20
2019-02-05T22:20:32.322Z,45.60
2019-02-05T22:23:00.978Z,41.20
2019-02-05T22:25:31.110Z,45.07
2019-02-05T22:28:00.182Z,46.57
2019-02-05T22:30:36.798Z,48.57
2019-02-05T22:33:07.674Z,49.33
2019-02-05T22:35:36.607Z,45.70
2019-02-05T22:38:05.958Z,46.23
2019-02-05T22:40:34.774Z,40.90
2019-02-05T22:43:04.938Z,41.03
2019-02-05T22:45:37.432Z,44.20
2019-02-05T22:48:07.018Z,69.43
2019-02-05T22:50:37.335Z,46.80
2019-02-05T22:53:08.417Z,38.60
2019-02-05T22:55:37.357Z,43.20
2019-02-05T22:58:06.856Z,37.27
2019-02-05T23:00:43.818Z,35.03
2019-02-05T23:03:12.751Z,34.23
2019-02-05T23:06:03.193Z,31.00
2019-02-05T23:08:32.614Z,33.10
2019-02-05T23:11:20.723Z,30.40
2019-02-05T23:13:49.647Z,32.23
2019-02-05T23:16:18.883Z,29.50
2019-02-05T23:18:47.853Z,30.00
2019-02-05T23:21:16.387Z,27.17
2019-02-05T23:23:44.922Z,24.37
2019-02-05T23:26:18.160Z,26.93
2019-02-05T23:28:46.684Z,29.30
2019-02-05T23:31:15.650Z,29.30
2019-02-05T23:33:46.097Z,25.27
2019-02-05T23:36:14.982Z,26.40
2019-02-05T23:38:43.838Z,26.33
2019-02-05T23:41:16.068Z,24.50
2019-02-05T23:43:44.917Z,25.80
2019-02-05T23:46:13.590Z,24.90
2019-02-05T23:48:42.472Z,28.07
2019-02-05T23:51:10.996Z,25.07
2019-02-05T23:53:39.462Z,24.30
2019-02-05T23:56:08.666Z,21.70
2019-02-05T23:58:37.451Z,22.93
